createdAt,value
2019-03-06T00:01:07.168Z,97337.66
2019-03-06T00:03:33.846Z,97340.87
2019-03-06T00:06:00.674Z,97341.20
2019-03-06T00:08:27.341Z,97340.28
2019-03-06T00:10:54.028Z,97346.59
2019-03-06T00:13:20.952Z,97346.14
2019-03-06T00:15:48.014Z,97350.03
2019-03-06T00:18:14.757Z,97351.09
2019-03-06T00:20:41.515Z,97350.14
2019-03-06T00:23:08.239Z,97354.45
2019-03-06T00:25:34.929Z,97362.31
2019-03-06T00:28:01.607Z,97364.06
2019-03-06T00:30:28.449Z,97355.52
2019-03-06T00:32:55.100Z,97363.59
2019-03-06T00:35:24.987Z,97371.19
2019-03-06T00:37:51.809Z,97364.66
2019-03-06T00:40:26.423Z,97374.72
2019-03-06T00:42:53.267Z,97371.98
2019-03-06T00:45:19.812Z,97369.06
2019-03-06T00:47:46.479Z,97366.16
2019-03-06T00:50:13.333Z,97370.53
2019-03-06T00:52:40.004Z,97370.89
2019-03-06T00:55:06.820Z,97368.83
2019-03-06T00:57:33.650Z,97367.33
2019-03-06T01:00:00.398Z,97360.98
2019-03-06T01:02:27.129Z,97365.13
2019-03-06T01:04:53.920Z,97368.16
2019-03-06T01:07:20.940Z,97372.59
2019-03-06T01:09:47.501Z,97365.92
2019-03-06T01:12:14.280Z,97367.62
2019-03-06T01:14:40.966Z,97363.95
2019-03-06T01:17:07.620Z,97355.15
2019-03-06T01:19:34.452Z,97346.64
2019-03-06T01:22:01.103Z,97345.65
2019-03-06T01:24:27.867Z,97347.80
2019-03-06T01:26:54.571Z,97341.16
2019-03-06T01:29:21.222Z,97343.32
2019-03-06T01:31:47.999Z,97338.48
2019-03-06T01:34:39.730Z,97339.00
2019-03-06T01:37:21.318Z,97330.95
2019-03-06T01:40:06.265Z,97328.45
2019-03-06T01:42:38.380Z,97321.11
2019-03-06T01:45:07.753Z,97320.64
2019-03-06T01:47:34.434Z,97318.58
2019-03-06T01:50:01.090Z,97311.40
2019-03-06T01:52:27.928Z,97315.23
2019-03-06T01:54:54.669Z,97315.21
2019-03-06T01:57:21.435Z,97318.05
2019-03-06T01:59:48.101Z,97323.41
2019-03-06T02:02:14.871Z,97324.23
2019-03-06T02:04:41.556Z,97319.92
2019-03-06T02:07:08.582Z,97319.69
2019-03-06T02:09:35.117Z,97312.17
2019-03-06T02:12:01.753Z,97312.41
2019-03-06T02:14:28.302Z,97303.20
2019-03-06T02:16:54.830Z,97309.90
2019-03-06T02:19:21.458Z,97316.77
2019-03-06T02:21:47.979Z,97321.83
2019-03-06T02:24:14.610Z,97323.00
2019-03-06T02:26:41.368Z,97327.14
2019-03-06T02:29:08.038Z,97326.39
2019-03-06T02:31:34.678Z,97325.92
2019-03-06T02:34:01.342Z,97327.59
2019-03-06T02:36:27.994Z,97327.19
2019-03-06T02:38:54.651Z,97320.48
2019-03-06T02:41:21.286Z,97330.45
2019-03-06T02:43:47.811Z,97322.47
2019-03-06T02:46:14.345Z,97319.09
2019-03-06T02:48:40.873Z,97318.86
2019-03-06T02:51:09.079Z,97305.81
2019-03-06T02:53:36.058Z,97307.23
2019-03-06T02:56:02.789Z,97302.69
2019-03-06T02:58:51.618Z,97303.52
2019-03-06T03:01:37.565Z,97304.09
2019-03-06T03:04:17.682Z,97313.24
2019-03-06T03:06:47.912Z,97303.39
2019-03-06T03:09:16.207Z,97298.09
2019-03-06T03:11:42.863Z,97286.37
2019-03-06T03:14:09.494Z,97306.48
2019-03-06T03:16:36.011Z,97312.95
2019-03-06T03:19:02.539Z,97302.52
2019-03-06T03:21:29.219Z,97300.65
2019-03-06T03:23:55.836Z,97299.94
2019-03-06T03:26:22.414Z,97301.28
2019-03-06T03:28:49.251Z,97299.44
2019-03-06T03:31:15.968Z,97298.97
2019-03-06T03:33:42.521Z,97287.43
2019-03-06T03:36:09.055Z,97287.14
2019-03-06T03:38:35.687Z,97287.14
2019-03-06T03:41:02.342Z,97287.14
2019-03-06T03:43:28.872Z,97277.46
2019-03-06T03:45:55.511Z,97279.30
2019-03-06T03:48:22.129Z,97280.88
2019-03-06T03:50:48.752Z,97282.28
2019-03-06T03:53:15.338Z,97284.52
2019-03-06T03:55:41.851Z,97282.12
2019-03-06T03:58:08.568Z,97285.09
2019-03-06T04:00:35.526Z,97288.06
2019-03-06T04:03:02.149Z,97280.55
2019-03-06T04:05:28.779Z,97282.94
2019-03-06T04:07:55.407Z,97275.52
2019-03-06T04:10:22.161Z,97271.27
2019-03-06T04:12:48.823Z,97270.69
2019-03-06T04:15:15.843Z,97277.91
2019-03-06T04:17:42.431Z,97275.41
2019-03-06T04:20:09.984Z,97277.28
2019-03-06T04:22:36.514Z,97287.83
2019-03-06T04:25:03.561Z,97290.09
2019-03-06T04:27:30.157Z,97293.75
2019-03-06T04:29:56.778Z,97295.17
2019-03-06T04:32:23.532Z,97298.25
2019-03-06T04:34:50.065Z,97281.20
2019-03-06T04:37:16.701Z,97278.91
2019-03-06T04:39:43.318Z,97277.66
2019-03-06T04:42:10.241Z,97270.16
2019-03-06T04:44:36.748Z,97265.13
2019-03-06T04:47:03.494Z,97268.67
2019-03-06T04:49:30.025Z,97275.43
2019-03-06T04:51:56.550Z,97273.61
2019-03-06T04:54:23.075Z,97276.58
2019-03-06T04:56:49.609Z,97267.23
2019-03-06T04:59:16.236Z,97264.87
2019-03-06T05:01:43.068Z,97256.01
2019-03-06T05:04:09.801Z,97242.63
2019-03-06T05:06:36.319Z,97245.61
2019-03-06T05:09:05.105Z,97238.36
2019-03-06T05:11:31.780Z,97239.42
2019-03-06T05:13:58.340Z,97236.49
2019-03-06T05:17:03.246Z,97235.70
2019-03-06T05:19:29.798Z,97241.64
2019-03-06T05:21:56.570Z,97244.56
2019-03-06T05:24:23.211Z,97243.75
2019-03-06T05:26:49.847Z,97250.75
2019-03-06T05:29:16.465Z,97250.51
2019-03-06T05:32:25.660Z,97247.30
2019-03-06T05:34:52.290Z,97255.92
2019-03-06T05:37:43.920Z,97246.28
2019-03-06T05:40:10.606Z,97244.70
2019-03-06T05:42:37.129Z,97245.80
2019-03-06T05:45:04.048Z,97250.93
2019-03-06T05:47:30.563Z,97248.53
2019-03-06T05:49:57.092Z,97250.16
2019-03-06T05:52:23.754Z,97237.02
2019-03-06T05:54:50.267Z,97236.53
2019-03-06T05:57:16.790Z,97229.81
2019-03-06T05:59:43.323Z,97230.62
2019-03-06T06:02:09.964Z,97230.92
2019-03-06T06:04:36.585Z,97229.05
2019-03-06T06:07:03.292Z,97219.36
2019-03-06T06:09:29.910Z,97227.17
2019-03-06T06:11:56.585Z,97231.55
2019-03-06T06:14:23.103Z,97225.88
2019-03-06T06:16:49.764Z,97229.33
2019-03-06T06:19:16.281Z,97231.45
2019-03-06T06:22:07.219Z,97230.92
2019-03-06T06:24:33.832Z,97243.29
2019-03-06T06:27:00.359Z,97239.75
2019-03-06T06:29:26.931Z,97240.84
2019-03-06T06:31:53.554Z,97237.02
2019-03-06T06:34:20.120Z,97234.53
2019-03-06T06:36:46.713Z,97246.28
2019-03-06T06:39:13.246Z,97248.97
2019-03-06T06:41:39.883Z,97246.48
2019-03-06T06:44:06.496Z,97243.55
2019-03-06T06:46:33.333Z,97235.83
2019-03-06T06:48:59.844Z,97230.74
2019-03-06T06:52:07.111Z,97222.97
2019-03-06T06:55:05.436Z,97220.13
2019-03-06T06:57:51.099Z,97211.59
2019-03-06T07:01:16.925Z,97214.78
2019-03-06T07:05:09.298Z,97215.34
2019-03-06T07:07:54.023Z,97204.97
2019-03-06T07:10:39.064Z,97208.55
2019-03-06T07:13:19.732Z,97211.40
2019-03-06T07:15:56.344Z,97214.13
2019-03-06T07:18:40.953Z,97207.41
2019-03-06T07:21:12.084Z,97208.19
2019-03-06T07:23:58.376Z,97211.77
2019-03-06T07:26:38.142Z,97213.67
2019-03-06T07:29:28.250Z,97215.14
2019-03-06T07:32:20.304Z,97215.72
2019-03-06T07:35:42.155Z,97197.54
2019-03-06T07:38:08.845Z,97188.52
2019-03-06T07:40:55.244Z,97198.72
2019-03-06T07:43:36.152Z,97192.88
2019-03-06T07:46:34.401Z,97188.10
2019-03-06T07:49:20.932Z,97195.98
2019-03-06T07:51:55.734Z,97189.77
2019-03-06T07:54:36.030Z,97182.83
2019-03-06T07:57:37.561Z,97175.07
2019-03-06T08:00:17.403Z,97176.45
2019-03-06T08:03:18.992Z,97159.52
2019-03-06T08:05:45.655Z,97153.80
2019-03-06T08:08:12.179Z,97149.89
2019-03-06T08:10:39.843Z,97147.38
2019-03-06T08:13:30.081Z,97144.73
2019-03-06T08:16:10.252Z,97139.47
2019-03-06T08:18:59.150Z,97130.31
2019-03-06T08:21:43.392Z,97135.53
2019-03-06T08:24:27.983Z,97131.43
2019-03-06T08:26:55.042Z,97127.11
2019-03-06T08:29:21.567Z,97129.04
2019-03-06T08:31:51.562Z,97119.36
2019-03-06T08:34:18.080Z,97121.11
2019-03-06T08:36:46.060Z,97121.95
2019-03-06T08:39:20.596Z,97116.52
2019-03-06T08:41:47.630Z,97122.20
2019-03-06T08:44:14.433Z,97119.84
2019-03-06T08:46:59.587Z,97123.20
2019-03-06T08:49:50.103Z,97120.19
2019-03-06T08:52:39.101Z,97119.67
2019-03-06T08:55:26.700Z,97115.66
2019-03-06T08:58:15.993Z,97115.20
2019-03-06T09:01:09.083Z,97132.52
2019-03-06T09:03:54.256Z,97126.34
2019-03-06T09:06:40.624Z,97117.05
2019-03-06T09:09:36.471Z,97124.22
2019-03-06T09:12:18.554Z,97112.62
2019-03-06T09:15:03.498Z,97109.78
2019-03-06T09:17:56.043Z,97100.15
2019-03-06T09:20:41.029Z,97096.09
2019-03-06T09:23:29.803Z,97077.44
2019-03-06T09:26:20.481Z,97084.50
2019-03-06T09:29:01.331Z,97090.28
2019-03-06T09:31:46.648Z,97095.36
2019-03-06T09:34:35.277Z,97097.04
2019-03-06T09:37:08.028Z,97092.33
2019-03-06T09:39:54.386Z,97081.28
2019-03-06T09:42:43.087Z,97074.58
2019-03-06T09:45:29.366Z,97075.99
2019-03-06T09:48:06.101Z,97062.83
2019-03-06T09:50:55.081Z,97057.20
2019-03-06T09:53:37.908Z,97058.28
2019-03-06T09:56:33.215Z,97058.29
2019-03-06T09:59:05.775Z,97066.11
2019-03-06T10:01:52.077Z,97064.76
2019-03-06T10:04:38.296Z,97059.87
2019-03-06T10:07:25.141Z,97052.75
2019-03-06T10:10:09.357Z,97050.86
2019-03-06T10:12:47.586Z,97053.41
2019-03-06T10:15:46.542Z,97051.07
2019-03-06T10:18:20.800Z,97037.50
2019-03-06T10:20:47.592Z,97034.91
2019-03-06T10:23:14.630Z,97023.22
2019-03-06T10:25:41.393Z,97022.91
2019-03-06T10:28:08.919Z,97014.42
2019-03-06T10:30:35.566Z,97015.90
2019-03-06T10:33:02.218Z,97005.83
2019-03-06T10:35:28.942Z,96996.95
2019-03-06T10:37:55.906Z,96999.62
2019-03-06T10:40:22.544Z,96988.98
2019-03-06T10:42:49.444Z,96986.36
2019-03-06T10:45:16.827Z,96988.39
2019-03-06T10:47:43.821Z,96980.06
2019-03-06T10:50:12.761Z,96971.74
2019-03-06T10:52:39.392Z,96962.41
2019-03-06T10:55:07.378Z,96960.16
2019-03-06T10:57:34.084Z,96947.52
2019-03-06T11:00:00.637Z,96956.62
2019-03-06T11:02:27.554Z,96954.65
2019-03-06T11:05:01.157Z,96942.44
2019-03-06T11:07:27.801Z,96945.33
2019-03-06T11:09:54.459Z,96939.16
2019-03-06T11:12:22.299Z,96938.48
2019-03-06T11:14:50.017Z,96919.32
2019-03-06T11:17:19.376Z,96913.84
2019-03-06T11:19:46.453Z,96909.55
2019-03-06T11:22:13.202Z,96912.02
2019-03-06T11:24:40.058Z,96908.31
2019-03-06T11:27:07.133Z,96905.11
2019-03-06T11:29:33.886Z,96904.16
2019-03-06T11:32:00.506Z,96906.27
2019-03-06T11:34:27.163Z,96899.80
2019-03-06T11:36:54.005Z,96894.66
2019-03-06T11:39:20.958Z,96883.37
2019-03-06T11:41:47.615Z,96873.52
2019-03-06T11:44:14.295Z,96870.16
2019-03-06T11:46:41.090Z,96868.35
2019-03-06T11:49:07.872Z,96865.36
2019-03-06T11:51:34.534Z,96862.61
2019-03-06T11:54:01.188Z,96853.45
2019-03-06T11:56:28.034Z,96841.84
2019-03-06T11:58:54.961Z,96840.73
2019-03-06T12:01:25.313Z,96826.28
2019-03-06T12:03:52.329Z,96813.56
2019-03-06T12:06:18.972Z,96815.30
2019-03-06T12:08:46.166Z,96814.19
2019-03-06T12:11:12.830Z,96800.33
2019-03-06T12:13:39.662Z,96799.09
2019-03-06T12:16:07.633Z,96794.72
2019-03-06T12:18:36.834Z,96794.33
2019-03-06T12:21:03.740Z,96782.66
2019-03-06T12:23:30.458Z,96783.13
2019-03-06T12:25:57.322Z,96778.87
2019-03-06T12:28:23.954Z,96768.84
2019-03-06T12:30:50.873Z,96783.00
2019-03-06T12:33:20.314Z,96760.40
2019-03-06T12:35:47.142Z,96754.67
2019-03-06T12:38:13.791Z,96746.41
2019-03-06T12:40:40.341Z,96738.23
2019-03-06T12:43:07.074Z,96743.61
2019-03-06T12:45:33.900Z,96743.80
2019-03-06T12:48:01.004Z,96737.47
2019-03-06T12:50:28.543Z,96737.18
2019-03-06T12:52:55.243Z,96732.94
2019-03-06T12:55:21.988Z,96724.59
2019-03-06T12:57:48.729Z,96724.49
2019-03-06T13:00:19.505Z,96723.28
2019-03-06T13:02:46.396Z,96716.61
2019-03-06T13:05:13.129Z,96706.67
2019-03-06T13:07:40.157Z,96704.21
2019-03-06T13:10:08.049Z,96689.70
2019-03-06T13:12:34.775Z,96688.84
2019-03-06T13:15:01.443Z,96686.87
2019-03-06T13:17:29.698Z,96696.59
2019-03-06T13:19:56.404Z,96689.99
2019-03-06T13:22:23.452Z,96683.72
2019-03-06T13:24:50.068Z,96673.49
2019-03-06T13:27:16.686Z,96667.82
2019-03-06T13:29:43.219Z,96665.80
2019-03-06T13:32:12.007Z,96669.25
2019-03-06T13:34:50.394Z,96664.34
2019-03-06T13:37:10.968Z,96656.95
2019-03-06T13:39:37.509Z,96654.63
2019-03-06T13:42:04.404Z,96646.83
2019-03-06T13:44:30.957Z,96604.00
2019-03-06T13:46:57.764Z,96624.48
2019-03-06T13:49:24.434Z,96621.92
2019-03-06T13:51:51.153Z,96616.37
2019-03-06T13:54:17.798Z,96616.39
2019-03-06T13:56:44.828Z,96615.16
2019-03-06T13:59:11.472Z,96604.59
2019-03-06T14:01:38.201Z,96600.66
2019-03-06T14:04:05.014Z,96590.45
2019-03-06T14:06:31.652Z,96594.45
2019-03-06T14:08:58.357Z,96589.58
2019-03-06T14:11:24.892Z,96581.34
2019-03-06T14:13:51.535Z,96571.30
2019-03-06T14:16:18.351Z,96574.27
2019-03-06T14:18:46.101Z,96568.33
2019-03-06T14:21:12.756Z,96566.13
2019-03-06T14:23:39.398Z,96545.34
2019-03-06T14:26:06.770Z,96543.50
2019-03-06T14:28:33.557Z,96558.19
2019-03-06T14:31:00.072Z,96544.02
2019-03-06T14:33:27.109Z,96534.71
2019-03-06T14:35:53.796Z,96532.64
2019-03-06T14:38:20.717Z,96534.80
2019-03-06T14:40:48.442Z,96531.27
2019-03-06T14:43:15.100Z,96524.16
2019-03-06T14:45:41.924Z,96529.18
2019-03-06T14:48:08.593Z,96529.26
2019-03-06T14:50:35.114Z,96528.30
2019-03-06T14:53:01.851Z,96524.45
2019-03-06T14:55:28.518Z,96527.91
2019-03-06T14:57:55.228Z,96525.03
2019-03-06T15:00:22.076Z,96507.88
2019-03-06T15:02:48.855Z,96506.11
2019-03-06T15:05:16.087Z,96495.10
2019-03-06T15:07:42.856Z,96502.08
2019-03-06T15:10:11.338Z,96498.56
2019-03-06T15:12:37.991Z,96491.12
2019-03-06T15:15:05.211Z,96494.56
2019-03-06T15:17:31.853Z,96493.12
2019-03-06T15:19:58.375Z,96487.91
2019-03-06T15:22:24.968Z,96476.21
2019-03-06T15:24:51.624Z,96473.97
2019-03-06T15:27:18.482Z,96465.13
2019-03-06T15:29:45.201Z,96457.98
2019-03-06T15:32:12.184Z,96466.21
2019-03-06T15:34:38.761Z,96464.84
2019-03-06T15:37:05.508Z,96460.95
2019-03-06T15:39:42.202Z,96459.16
2019-03-06T15:42:03.985Z,96463.59
2019-03-06T15:44:31.054Z,96458.15
2019-03-06T15:46:57.693Z,96455.77
2019-03-06T15:49:24.435Z,96463.38
2019-03-06T15:51:51.252Z,96464.64
2019-03-06T15:54:17.880Z,96460.11
2019-03-06T15:56:44.420Z,96456.85
2019-03-06T15:59:15.013Z,96462.11
2019-03-06T16:01:39.668Z,96461.32
2019-03-06T16:04:06.423Z,96460.98
2019-03-06T16:06:33.086Z,96456.80
2019-03-06T16:08:59.778Z,96458.23
2019-03-06T16:11:26.520Z,96455.48
2019-03-06T16:13:53.400Z,96447.77
2019-03-06T16:16:20.439Z,96448.87
2019-03-06T16:18:47.377Z,96444.82
2019-03-06T16:21:14.064Z,96445.68
2019-03-06T16:23:40.633Z,96450.02
2019-03-06T16:26:09.956Z,96438.61
2019-03-06T16:28:36.983Z,96430.42
2019-03-06T16:31:03.786Z,96420.19
2019-03-06T16:33:30.674Z,96412.77
2019-03-06T16:35:57.661Z,96402.65
2019-03-06T16:38:24.363Z,96399.07
2019-03-06T16:40:50.918Z,96396.07
2019-03-06T16:43:17.554Z,96394.90
2019-03-06T16:45:44.290Z,96397.84
2019-03-06T16:48:10.949Z,96394.54
2019-03-06T16:50:37.933Z,96397.18
2019-03-06T16:53:04.836Z,96396.85
2019-03-06T16:55:31.526Z,96391.88
2019-03-06T16:57:58.640Z,96379.74
2019-03-06T17:00:27.603Z,96381.21
2019-03-06T17:02:55.129Z,96384.28
2019-03-06T17:05:22.165Z,96398.48
2019-03-06T17:07:49.499Z,96394.27
2019-03-06T17:10:16.645Z,96400.30
2019-03-06T17:12:43.308Z,96392.87
2019-03-06T17:15:11.669Z,96387.88
2019-03-06T17:17:38.304Z,96391.80
2019-03-06T17:20:05.350Z,96384.22
2019-03-06T17:22:31.989Z,96383.97
2019-03-06T17:24:58.668Z,96382.56
2019-03-06T17:27:25.315Z,96371.01
2019-03-06T17:29:51.930Z,96370.56
2019-03-06T17:32:18.613Z,96370.06
2019-03-06T17:34:45.238Z,96369.80
2019-03-06T17:37:13.021Z,96376.09
2019-03-06T17:39:39.673Z,96376.73
2019-03-06T17:42:06.444Z,96371.95
2019-03-06T17:44:33.357Z,96372.51
2019-03-06T17:46:59.923Z,96370.14
2019-03-06T17:49:26.609Z,96374.52
2019-03-06T17:51:53.142Z,96381.54
2019-03-06T17:54:19.888Z,96374.41
2019-03-06T17:56:46.836Z,96373.16
2019-03-06T17:59:13.593Z,96370.80
2019-03-06T18:01:40.237Z,96372.20
2019-03-06T18:04:13.935Z,96370.38
2019-03-06T18:06:40.637Z,96374.75
2019-03-06T18:09:08.403Z,96366.19
2019-03-06T18:11:35.096Z,96367.05
2019-03-06T18:14:04.616Z,96364.63
2019-03-06T18:16:31.526Z,96361.16
2019-03-06T18:18:58.167Z,96363.92
2019-03-06T18:21:25.588Z,96368.83
2019-03-06T18:23:52.374Z,96367.48
2019-03-06T18:26:18.935Z,96358.59
2019-03-06T18:28:45.572Z,96364.86
2019-03-06T18:31:12.378Z,96364.61
2019-03-06T18:33:39.083Z,96362.95
2019-03-06T18:36:06.038Z,96363.25
2019-03-06T18:38:32.801Z,96359.19
2019-03-06T18:40:59.484Z,96350.26
2019-03-06T18:43:26.253Z,96353.02
2019-03-06T18:45:52.973Z,96345.98
2019-03-06T18:48:19.658Z,96343.95
2019-03-06T18:50:46.312Z,96341.33
2019-03-06T18:53:13.011Z,96326.27
2019-03-06T18:55:40.050Z,96321.50
2019-03-06T18:58:06.788Z,96321.11
2019-03-06T19:00:33.878Z,96315.83
2019-03-06T19:03:00.635Z,96319.08
2019-03-06T19:05:27.302Z,96317.01
2019-03-06T19:07:56.049Z,96309.27
2019-03-06T19:10:22.897Z,96306.17
2019-03-06T19:12:49.878Z,96302.48
2019-03-06T19:15:17.453Z,96292.84
2019-03-06T19:17:44.193Z,96288.06
2019-03-06T19:20:10.946Z,96286.61
2019-03-06T19:22:37.793Z,96282.88
2019-03-06T19:25:04.887Z,96282.95
2019-03-06T19:27:31.590Z,96284.17
2019-03-06T19:29:58.169Z,96284.02
2019-03-06T19:32:24.934Z,96282.73
2019-03-06T19:34:51.566Z,96281.79
2019-03-06T19:37:18.210Z,96282.16
2019-03-06T19:39:44.882Z,96283.86
2019-03-06T19:42:11.640Z,96276.08
2019-03-06T19:44:38.414Z,96281.52
2019-03-06T19:47:05.299Z,96277.02
2019-03-06T19:49:33.016Z,96266.25
2019-03-06T19:52:07.690Z,96251.78
2019-03-06T19:54:36.618Z,96249.95
2019-03-06T19:57:03.476Z,96244.06
2019-03-06T19:59:30.241Z,96243.58
2019-03-06T20:01:57.032Z,96238.79
2019-03-06T20:04:23.682Z,96234.48
2019-03-06T20:06:50.658Z,96235.03
2019-03-06T20:09:25.460Z,96238.30
2019-03-06T20:11:52.229Z,96231.36
2019-03-06T20:14:18.899Z,96240.62
2019-03-06T20:16:47.756Z,96249.30
2019-03-06T20:19:14.515Z,96241.00
2019-03-06T20:21:41.193Z,96238.06
2019-03-06T20:24:08.221Z,96227.45
2019-03-06T20:26:34.972Z,96238.13
2019-03-06T20:29:01.754Z,96228.73
2019-03-06T20:31:28.658Z,96228.48
2019-03-06T20:33:55.440Z,96225.27
2019-03-06T20:36:22.359Z,96227.73
2019-03-06T20:38:51.102Z,96217.52
2019-03-06T20:41:17.827Z,96222.42
2019-03-06T20:43:44.668Z,96211.66
2019-03-06T20:46:11.412Z,96198.48
2019-03-06T20:48:38.270Z,96200.11
2019-03-06T20:51:04.997Z,96197.67
2019-03-06T20:53:32.072Z,96206.31
2019-03-06T20:55:58.819Z,96204.70
2019-03-06T20:58:25.449Z,96198.28
2019-03-06T21:00:52.178Z,96209.09
2019-03-06T21:03:19.161Z,96209.67
2019-03-06T21:05:45.904Z,96194.80
2019-03-06T21:08:12.759Z,96197.79
2019-03-06T21:10:39.635Z,96197.55
2019-03-06T21:13:07.475Z,96196.80
2019-03-06T21:15:34.204Z,96201.94
2019-03-06T21:18:01.012Z,96205.98
2019-03-06T21:20:28.271Z,96199.24
2019-03-06T21:22:55.302Z,96201.42
2019-03-06T21:25:22.110Z,96190.63
2019-03-06T21:27:50.063Z,96187.45
2019-03-06T21:30:22.920Z,96188.77
2019-03-06T21:32:50.669Z,96193.13
2019-03-06T21:35:18.462Z,96194.73
2019-03-06T21:37:44.981Z,96191.78
2019-03-06T21:40:11.814Z,96183.69
2019-03-06T21:42:38.535Z,96189.68
2019-03-06T21:45:05.798Z,96190.23
2019-03-06T21:47:32.662Z,96182.47
2019-03-06T21:49:59.305Z,96181.69
2019-03-06T21:52:25.934Z,96185.78
2019-03-06T21:54:52.578Z,96182.59
2019-03-06T21:57:19.408Z,96180.75
2019-03-06T21:59:46.191Z,96173.52
2019-03-06T22:02:14.028Z,96180.57
2019-03-06T22:04:41.416Z,96182.17
2019-03-06T22:07:09.180Z,96173.85
2019-03-06T22:09:36.287Z,96170.35
2019-03-06T22:12:03.076Z,96170.66
2019-03-06T22:14:29.782Z,96172.86
2019-03-06T22:16:56.527Z,96172.62
2019-03-06T22:19:23.099Z,96163.45
2019-03-06T22:21:50.265Z,96165.63
2019-03-06T22:24:16.829Z,96162.69
2019-03-06T22:26:43.664Z,96157.89
2019-03-06T22:29:12.596Z,96166.02
2019-03-06T22:31:39.032Z,96164.69
2019-03-06T22:34:05.853Z,96163.65
2019-03-06T22:36:32.697Z,96155.84
2019-03-06T22:38:59.431Z,96154.80
2019-03-06T22:41:26.281Z,96159.41
2019-03-06T22:43:52.935Z,96158.08
2019-03-06T22:46:19.568Z,96162.13
2019-03-06T22:48:46.212Z,96159.42
2019-03-06T22:51:12.870Z,96161.58
2019-03-06T22:53:39.494Z,96164.02
2019-03-06T22:56:06.224Z,96164.52
2019-03-06T22:58:33.027Z,96157.76
2019-03-06T23:01:10.755Z,96151.00
2019-03-06T23:03:37.445Z,96153.13
2019-03-06T23:06:04.075Z,96147.48
2019-03-06T23:08:30.718Z,96145.86
2019-03-06T23:10:57.378Z,96148.03
2019-03-06T23:13:24.325Z,96141.86
2019-03-06T23:15:50.994Z,96142.41
2019-03-06T23:18:17.535Z,96137.86
2019-03-06T23:20:44.212Z,96132.75
2019-03-06T23:23:10.864Z,96121.17
2019-03-06T23:25:37.515Z,96122.76
2019-03-06T23:28:04.155Z,96122.45
2019-03-06T23:30:31.065Z,96131.58
2019-03-06T23:32:57.635Z,96132.08
2019-03-06T23:35:24.288Z,96134.49
2019-03-06T23:37:50.911Z,96133.41
2019-03-06T23:40:17.537Z,96130.14
2019-03-06T23:42:44.274Z,96123.41
2019-03-06T23:45:11.010Z,96123.14
2019-03-06T23:47:37.987Z,96117.78
2019-03-06T23:50:04.689Z,96115.91
2019-03-06T23:52:35.850Z,96124.84
2019-03-06T23:55:02.690Z,96121.89
2019-03-06T23:57:29.348Z,96109.51
2019-03-06T23:59:55.889Z,96094.95
